logo
Search for airport 
image banner adimage banner adimage banner ad
image banner ad

ENLV - Elvenes

Located in , Norway

ICAO - , IATA -

Data provided by Airmate  

General information

Coordinates: N68°52'16" E17°59'2"
Elevation is 53 feet MSL.
Magnetic variation is 8.7° East
View others Airports in Troms

Operational data

Special qualification required
Current time UTC:
Current local time:
Weather at : ENDU - Bardufoss ( 30 km )
METAR: ENDU 140020Z 25004KT 220V310 9999 FEW030 SCT060 04/M00 Q0991 RMK WIND 1100FT 24007KT WIND 2200FT 23013KT
TAF: TAF ENDU 132300Z 1400/1424 29005KT 9999 FEW040 SCT060 PROB30 1400/1406 1200 PRFG
View NOTAMs / SUP AIP / TFR affecting this airport [VIEW]
Communications frequencies: [VIEW]

Runways:

RWY identifierQFULength (ft)Width (ft)SurfaceLDA (ft)
0800UNK
2600UNK

Airport contact information

Address: Norway

Satellite view of ENLV